WetterOnline ( https://www.wetteronline.ch )

Wetter aktuell Freiburg im Breisgau

Aktuelles Wetter: Freiburg/Flugplatz (236m)

6-stündlich | Neueste Meldungen
Ortszeit Temperatur Wetter
Sa, 24.02. 13:00 7.9° C wolkig
Sa, 24.02. 7:00 5.3° C Regen
Sa, 24.02. 1:00 5.1° C leichter Regen
Fr, 23.02. 19:00 8.1° C wolkig
Fr, 23.02. 13:00 9.0° C bewölkt
Fr, 23.02. 7:00 5.5° C wolkenlos
Fr, 23.02. 1:00 6.9° C Regen
Do, 22.02. 19:00 14.6° C leichter Regen
Ortszeit Temperatur Wetter
Sa, 24.02. 17:00 9.0° C wolkig
Sa, 24.02. 16:50 9.0° C wolkig
Sa, 24.02. 16:40 9.0° C bewölkt
Sa, 24.02. 16:30 9.2° C wolkig
Sa, 24.02. 16:20 9.2° C wolkig
Sa, 24.02. 16:10 9.2° C bewölkt
Sa, 24.02. 16:00 8.9° C bewölkt
Sa, 24.02. 15:30 8.7° C bewölkt
Sa, 24.02. 15:00 8.6° C bewölkt
Sa, 24.02. 14:30 8.8° C leichter Regen
Sa, 24.02. 14:00 8.2° C wolkig
Ortszeit Relative Feuchte Sichtweite
Sa, 24.02. 13:00 61% >70 km
Sa, 24.02. 7:00 76% 7 km
Sa, 24.02. 1:00 83% 40 km
Fr, 23.02. 19:00 61% 50 km
Fr, 23.02. 13:00 55% 40 km
Fr, 23.02. 7:00 70% 55 km
Fr, 23.02. 1:00 84% >70 km
Do, 22.02. 19:00 57% 65 km
Ortszeit Relative Feuchte Sichtweite
Sa, 24.02. 17:00 56% >70 km
Sa, 24.02. 16:50 56% -
Sa, 24.02. 16:40 56% -
Sa, 24.02. 16:30 54% >70 km
Sa, 24.02. 16:20 54% -
Sa, 24.02. 16:10 54% -
Sa, 24.02. 16:00 62% 60 km
Sa, 24.02. 15:30 58% >70 km
Sa, 24.02. 15:00 59% 55 km
Sa, 24.02. 14:30 63% 28 km
Sa, 24.02. 14:00 60% 65 km
Ortszeit Niederschlagsmenge Niederschlagsart
Sa, 24.02. 13:00 0.3 l/m2 in 6 Std. Regen
Sa, 24.02. 7:00 1 l/m2 in 12 Std. Regen
Sa, 24.02. 1:00 0.1 l/m2 in 6 Std. Regen
Fr, 23.02. 19:00 0.1 l/m2 in 12 Std. Regen
Fr, 23.02. 13:00 0.0 l/m2 in 6 Std. -
Fr, 23.02. 7:00 2 l/m2 in 12 Std. Regen
Fr, 23.02. 1:00 2 l/m2 in 6 Std. Regen
Do, 22.02. 19:00 2 l/m2 in 12 Std. Regen
Ortszeit Niederschlagsmenge Niederschlagsart
Sa, 24.02. 17:00 <0.05 l/m2 in 1 Std. Regen
Sa, 24.02. 16:50 keine Meldung -
Sa, 24.02. 16:40 keine Meldung -
Sa, 24.02. 16:30 <0.05 l/m2 in 30 Min Schneeregen
Sa, 24.02. 16:20 keine Meldung -
Sa, 24.02. 16:10 keine Meldung -
Sa, 24.02. 16:00 <0.05 l/m2 in 1 Std. Regen
Sa, 24.02. 15:30 <0.05 l/m2 in 30 Min Schneeregen
Sa, 24.02. 15:00 <0.05 l/m2 in 1 Std. Regen
Sa, 24.02. 14:30 <0.05 l/m2 in 30 Min -
Sa, 24.02. 14:00 0.0 l/m2 in 1 Std. -
Ortszeit Stärke Spitze Richtung
km/h Bft. km/h Grad Sektor
Sa, 24.02. 13:00 18 3 43 220° SW
Sa, 24.02. 7:00 30 5 59 230° SW
Sa, 24.02. 1:00 15 3 44 240° SW
Fr, 23.02. 19:00 9 2 35 160° S
Fr, 23.02. 13:00 17 3 39 250° W
Fr, 23.02. 7:00 24 4 46 210° SW
Fr, 23.02. 1:00 18 3 65 220° SW
Do, 22.02. 19:00 33 5 61 200° S
Ortszeit Stärke Spitze Richtung
km/h Bft. km/h Grad Sektor
Sa, 24.02. 17:00 11 2 25 220° SW
Sa, 24.02. 16:50 11 2 - 220° SW
Sa, 24.02. 16:40 11 2 - 220° SW
Sa, 24.02. 16:30 13 3 26 220° SW
Sa, 24.02. 16:20 13 3 - 220° SW
Sa, 24.02. 16:10 11 2 - 220° SW
Sa, 24.02. 16:00 11 2 22 210° SW
Sa, 24.02. 15:30 11 2 22 210° SW
Sa, 24.02. 15:00 15 3 24 210° SW
Sa, 24.02. 14:30 11 2 22 200° S
Sa, 24.02. 14:00 14 3 29 210° SW
Ortszeit Untergrenze Bedeckung Gattung
total tief tief mittel hoch
Sa, 24.02. 13:00 1020 m 7/8 3/8 - - -
Sa, 24.02. 7:00 690 m 7/8 7/8 - - -
Sa, 24.02. 1:00 570 m 8/8 8/8 - - -
Fr, 23.02. 19:00 1500 m 6/8 6/8 - - -
Fr, 23.02. 13:00 1320 m 7/8 7/8 - - -
Fr, 23.02. 7:00 - 0/8 0/8 - - -
Fr, 23.02. 1:00 540 m 8/8 8/8 - - -
Do, 22.02. 19:00 2100 m 8/8 6/8 - - -
Ortszeit Bedeckungsgrad in Achtel und Wolkenuntergrenze
Sa, 24.02. 17:00 5(1320m) 7(5400m) 7(6300m)
Sa, 24.02. 16:50 5(1320m) 7(5400m) 7(6300m)
Sa, 24.02. 16:40 7
Sa, 24.02. 16:30 1(1500m) 3(5400m) 7(6000m)
Sa, 24.02. 16:20 1(1500m) 3(5400m) 7(6000m)
Sa, 24.02. 16:10 7
Sa, 24.02. 16:00 4(1380m) 7(1800m) 7(4500m)
Sa, 24.02. 15:30 3(1170m) 7(1500m) 8(3000m)
Sa, 24.02. 15:00 2(1140m) 7(1800m) 7(2400m)
Sa, 24.02. 14:30 4(1350m) 7(3300m) 7(4500m)
Sa, 24.02. 14:00 1(1020m) 8(4800m) 8(6000m)
Ortszeit Luftdruck NN (hPa) Tendenz (hPa in 3 Std.)
Sa, 24.02. 13:00 1006 + 0,9
Sa, 24.02. 7:00 1003 + 2,3
Sa, 24.02. 1:00 1001 + 1,4
Fr, 23.02. 19:00 998 + 0,1
Fr, 23.02. 13:00 1000 - 1,1
Fr, 23.02. 7:00 1001 - 0,2
Fr, 23.02. 1:00 1001 + 3,3
Do, 22.02. 19:00 993 - 2,8
Ortszeit Luftdruck NN (hPa) Tendenz (hPa in 3 Std.)
Sa, 24.02. 17:00 1007 + 1,0
Sa, 24.02. 16:50 1007 keine Meldung
Sa, 24.02. 16:40 1007 keine Meldung
Sa, 24.02. 16:30 1006 + 0,6
Sa, 24.02. 16:20 1006 keine Meldung
Sa, 24.02. 16:10 1006 keine Meldung
Sa, 24.02. 16:00 1006 + 0,4
Sa, 24.02. 15:30 1006 + 0,2
Sa, 24.02. 15:00 1006 + 0,2
Sa, 24.02. 14:30 1006 + 0,3
Sa, 24.02. 14:00 1006 + 0,4
Ortszeit Schneehöhe (cm)
Sa, 24.02. 13:00 0
Sa, 24.02. 7:00 0
Sa, 24.02. 1:00 0
Fr, 23.02. 19:00 0
Fr, 23.02. 13:00 0
Fr, 23.02. 7:00 0
Fr, 23.02. 1:00 0
Do, 22.02. 19:00 0
Ortszeit Schneehöhe (cm)
Sa, 24.02. 17:00 0
Sa, 24.02. 16:50 0
Sa, 24.02. 16:40 -
Sa, 24.02. 16:30 0
Sa, 24.02. 16:20 0
Sa, 24.02. 16:10 -
Sa, 24.02. 16:00 0
Sa, 24.02. 15:30 0
Sa, 24.02. 15:00 0
Sa, 24.02. 14:30 0
Sa, 24.02. 14:00 0
Link zu dieser Seite / Seite empfehlen

Das Wetter in ...